Columbiana, AL

11:12 PM CDT on July 07, 2015 (GMT -0500)
Emerald Parc | | Change Station
CLOSE
Current Station
Personal Weather Station
Location: Chelsea, AL
Elevation: 636 ft
Nearby Weather Stations

Elev 636 ft 33.29 °N, 86.65 °W | Updated 6 seconds ago

Clear
Clear
77.2 °F
Feels Like 79 °F
N
0.0
Wind Variable Wind from NNW
Gusts 0.0 mph

Today
High -- | Low -- °F
--% Chance of Precip.
Yesterday
High -- | Low -- °F
Precip. -- in
5:43 AM 7:58 PM
Waning Gibbous, 58% visible
Pressure 30.14 in
Visibility 9.0 miles
Clouds Clear
Heat Index 79 °F
Dew Point 74 °F
Humidity 90%
Rainfall 0.00 in
Snow Depth Not available.
UV 0.0 out of 12
Pollen 3.30 out of 12
Air Quality Not available.
Flu Activity Not available.
METAR KEET 080353Z AUTO 00000KT 9SM CLR 25/23 A3016 RMK AO2 SLP205 T02500233

More Conditions Fewer Conditions

Pressure 30.14 in
Visibility 9.0 miles
Clouds Clear
Heat Index 79 °F
Dew Point 74 °F
Humidity 90%
Rainfall 0.00 in
Snow Depth Not available.
UV 0.0 out of 12
Pollen 3.30 out of 12
Air Quality Not available.
Flu Activity Not available.
METAR KEET 080353Z AUTO 00000KT 9SM CLR 25/23 A3016 RMK AO2 SLP205 T02500233

More Conditions Fewer Conditions

10-Day Weather Forecast

×

Almanac

Astronomy

Jul. 07, 2015 Rise Set
Actual Time
Civil Twilight
Nautical Twilight
Astronomical Twilight
Moon
Length of Visible Light
Length of Day
Tomorrow will be .
, % of the Moon is Illuminated

Today's Extremes

State Highs State Lows

Community

WunderPhotos

Upload Photos

1,836,048 photos uploaded!

WunderBlogs® & News

Nearby

Air Quality

  Air Quality AQ Index Pollutant
Not available.

Snow Depth

Station Depth Elevation

Earthquake Activity

City Distance Mag. Time & Date
Minimum magnitude displayed is 2.5.

Coastal Water Temperatures

Place Temperature

Stations

Nearby Weather Stations

Station Location Temp. Windchill Dew Point Humidity Wind Precip. Elev Updated Type